createdAt,value
2022-10-01T00:00:02.103Z,28.40
2022-10-01T00:05:26.188Z,29.20
2022-10-01T00:10:30.621Z,30.30
2022-10-01T00:15:33.727Z,27.80
2022-10-01T00:20:43.697Z,26.10
2022-10-01T00:25:46.800Z,28.60
2022-10-01T00:30:49.803Z,27.20
2022-10-01T00:35:55.091Z,28.20
2022-10-01T00:40:58.881Z,28.70
2022-10-01T00:46:18.730Z,29.30
2022-10-01T00:51:23.219Z,27.70
2022-10-01T00:56:26.629Z,29.20
2022-10-01T01:06:32.841Z,28.20
2022-10-01T01:11:55.914Z,39.30
2022-10-01T01:17:08.812Z,51.10
2022-10-01T01:22:14.419Z,32.90
2022-10-01T01:27:46.619Z,31.00
2022-10-01T01:33:13.155Z,29.50
2022-10-01T01:38:22.293Z,25.90
2022-10-01T01:43:31.462Z,30.90
2022-10-01T01:48:37.926Z,35.80
2022-10-01T01:53:41.411Z,32.20
2022-10-01T01:58:46.091Z,29.20
2022-10-01T02:03:49.505Z,30.30
2022-10-01T02:14:04.215Z,28.60
2022-10-01T02:19:20.120Z,30.10
2022-10-01T02:24:41.659Z,27.10
2022-10-01T02:29:45.994Z,26.30
2022-10-01T02:34:51.221Z,29.30
2022-10-01T02:39:57.584Z,30.00
2022-10-01T02:45:03.547Z,30.70
2022-10-01T02:50:08.732Z,27.60
2022-10-01T02:55:23.638Z,24.40
2022-10-01T03:00:27.257Z,26.20
2022-10-01T03:05:31.285Z,27.20
2022-10-01T03:10:35.003Z,27.50
2022-10-01T03:15:38.056Z,28.10
2022-10-01T03:20:41.215Z,25.30
2022-10-01T03:25:44.220Z,26.00
2022-10-01T03:30:47.220Z,27.00
2022-10-01T03:35:50.224Z,26.40
2022-10-01T03:40:53.536Z,26.80
2022-10-01T03:51:00.975Z,25.60
2022-10-01T03:56:05.412Z,23.60
2022-10-01T04:01:08.518Z,24.80
2022-10-01T04:06:12.648Z,24.80
2022-10-01T04:11:15.855Z,26.90
2022-10-01T04:16:19.170Z,27.10
2022-10-01T04:26:25.478Z,33.90
2022-10-01T04:31:35.284Z,32.70
2022-10-01T04:36:38.963Z,37.10
2022-10-01T04:41:42.174Z,30.80
2022-10-01T04:51:48.583Z,38.40
2022-10-01T04:56:51.998Z,46.20
2022-10-01T05:06:58.207Z,36.40
2022-10-01T05:12:01.954Z,40.60
2022-10-01T05:17:06.162Z,39.10
2022-10-01T05:22:09.264Z,37.40
2022-10-01T05:27:13.506Z,34.50
2022-10-01T05:32:16.808Z,31.40
2022-10-01T05:37:19.943Z,39.70
2022-10-01T05:42:23.018Z,38.10
2022-10-01T05:47:26.534Z,23.60
2022-10-01T05:52:29.742Z,19.50
2022-10-01T05:57:33.319Z,19.40
2022-10-01T06:02:36.531Z,21.20
2022-10-01T06:07:39.879Z,26.20
2022-10-01T06:12:46.247Z,22.40
2022-10-01T06:17:49.468Z,19.80
2022-10-01T06:22:57.386Z,20.60
2022-10-01T06:28:01.265Z,19.30
2022-10-01T06:33:13.223Z,30.00
2022-10-01T06:38:18.443Z,35.90
2022-10-01T06:43:22.761Z,30.50
2022-10-01T06:48:25.931Z,30.60
2022-10-01T06:53:29.759Z,23.00
2022-10-01T06:58:33.460Z,16.40
2022-10-01T07:03:36.673Z,13.80
2022-10-01T07:08:40.083Z,11.80
2022-10-01T07:13:43.188Z,11.70
2022-10-01T07:18:46.246Z,10.40
2022-10-01T07:23:49.401Z,10.40
2022-10-01T07:28:52.915Z,9.70
2022-10-01T07:33:59.296Z,8.20
2022-10-01T07:39:02.402Z,8.40
2022-10-01T07:44:05.611Z,8.00
2022-10-01T07:49:09.848Z,8.50
2022-10-01T07:54:13.972Z,7.90
2022-10-01T07:59:17.282Z,7.60
2022-10-01T08:04:40.152Z,6.40
2022-10-01T08:09:43.463Z,6.70
2022-10-01T08:14:48.118Z,6.30
2022-10-01T08:19:51.312Z,6.40
2022-10-01T08:24:54.978Z,6.70
2022-10-01T08:29:58.033Z,5.90
2022-10-01T08:35:01.564Z,5.70
2022-10-01T08:40:07.502Z,5.00
2022-10-01T08:45:27.633Z,5.20
2022-10-01T08:50:53.261Z,6.80
2022-10-01T08:55:57.934Z,5.30
2022-10-01T09:01:01.837Z,6.10
2022-10-01T09:06:11.576Z,4.80
2022-10-01T09:11:25.037Z,4.90
2022-10-01T09:16:56.205Z,11.80
2022-10-01T09:22:03.796Z,4.00
2022-10-01T09:27:19.538Z,4.10
2022-10-01T09:32:32.393Z,4.20
2022-10-01T09:37:49.173Z,3.90
2022-10-01T09:42:52.687Z,4.20
2022-10-01T09:48:04.183Z,4.10
2022-10-01T09:53:18.749Z,4.20
2022-10-01T09:58:27.091Z,4.60
2022-10-01T10:03:32.153Z,4.30
2022-10-01T10:08:43.461Z,6.10
2022-10-01T10:13:53.183Z,5.80
2022-10-01T10:19:07.175Z,5.20
2022-10-01T10:24:32.776Z,4.50
2022-10-01T10:29:37.866Z,8.60
2022-10-01T10:34:47.078Z,6.50
2022-10-01T10:39:52.361Z,9.30
2022-10-01T10:45:03.455Z,6.50
2022-10-01T10:50:30.742Z,5.10
2022-10-01T10:55:33.926Z,10.20
2022-10-01T11:00:46.548Z,22.10
2022-10-01T11:05:52.375Z,7.60
2022-10-01T11:11:34.253Z,5.50
2022-10-01T11:17:00.392Z,5.50
2022-10-01T11:22:24.585Z,6.40
2022-10-01T11:27:37.518Z,6.10
2022-10-01T11:38:42.728Z,5.90
2022-10-01T11:43:55.761Z,7.00
2022-10-01T11:54:15.685Z,8.10
2022-10-01T11:59:22.785Z,5.60
2022-10-01T12:04:42.863Z,6.20
2022-10-01T12:09:55.422Z,6.00
2022-10-01T12:15:14.906Z,6.50
2022-10-01T12:20:41.462Z,7.10
2022-10-01T12:25:55.430Z,7.60
2022-10-01T12:31:19.413Z,7.40
2022-10-01T12:37:04.815Z,6.40
2022-10-01T12:42:41.609Z,7.20
2022-10-01T12:48:16.767Z,9.00
2022-10-01T12:53:36.563Z,10.00
2022-10-01T12:59:07.831Z,9.20
2022-10-01T13:04:35.612Z,7.60
2022-10-01T13:10:16.402Z,9.90
2022-10-01T13:15:42.750Z,8.60
2022-10-01T13:21:01.835Z,8.20
2022-10-01T13:26:37.407Z,8.40
2022-10-01T13:32:02.762Z,10.50
2022-10-01T13:37:32.464Z,7.50
2022-10-01T13:42:47.897Z,8.10
2022-10-01T13:47:51.465Z,7.00
2022-10-01T13:53:14.385Z,8.60
2022-10-01T13:58:31.270Z,12.40
2022-10-01T14:03:45.020Z,10.30
2022-10-01T14:08:55.437Z,12.20
2022-10-01T14:14:23.082Z,7.90
2022-10-01T14:19:28.588Z,10.40
2022-10-01T14:24:51.098Z,8.50
2022-10-01T14:30:13.049Z,8.60
2022-10-01T14:35:43.084Z,8.40
2022-10-01T14:40:48.888Z,8.50
2022-10-01T14:45:59.200Z,8.80
2022-10-01T14:51:05.642Z,9.40
2022-10-01T14:56:14.455Z,15.40
2022-10-01T15:01:19.707Z,8.80
2022-10-01T15:06:28.242Z,9.80
2022-10-01T15:11:34.020Z,13.80
2022-10-01T15:16:38.335Z,13.40
2022-10-01T15:21:48.845Z,15.20
2022-10-01T15:26:54.553Z,12.00
2022-10-01T15:31:58.944Z,14.20
2022-10-01T15:37:02.942Z,15.20
2022-10-01T15:42:26.841Z,19.70
2022-10-01T15:47:35.175Z,21.80
2022-10-01T15:52:52.407Z,18.60
2022-10-01T15:58:07.495Z,17.60
2022-10-01T16:03:36.611Z,20.20
2022-10-01T16:08:55.586Z,21.90
2022-10-01T16:14:44.362Z,20.20
2022-10-01T16:19:50.975Z,26.00
2022-10-01T16:25:25.388Z,28.00
2022-10-01T16:30:30.004Z,28.30
2022-10-01T16:35:36.119Z,31.40
2022-10-01T16:40:44.997Z,57.20
2022-10-01T16:45:48.442Z,19.40
2022-10-01T16:50:59.070Z,18.60
2022-10-01T16:56:02.351Z,23.00
2022-10-01T17:01:11.957Z,24.20
2022-10-01T17:06:15.427Z,37.30
2022-10-01T17:11:18.703Z,15.90
2022-10-01T17:16:24.666Z,17.80
2022-10-01T17:21:29.709Z,16.00
2022-10-01T17:26:33.429Z,16.10
2022-10-01T17:31:38.563Z,18.20
2022-10-01T17:36:42.049Z,21.80
2022-10-01T17:41:45.311Z,22.10
2022-10-01T17:56:56.826Z,24.30
2022-10-01T18:02:01.312Z,16.00
2022-10-01T18:07:08.568Z,18.60
2022-10-01T18:12:13.639Z,19.30
2022-10-01T18:17:17.602Z,22.50
2022-10-01T18:22:22.054Z,24.10
2022-10-01T18:27:26.215Z,20.80
2022-10-01T18:32:37.970Z,32.50
2022-10-01T18:37:41.229Z,30.60
2022-10-01T18:43:08.876Z,23.60
2022-10-01T18:48:52.266Z,43.60
2022-10-01T18:54:13.555Z,25.30
2022-10-01T18:59:36.155Z,25.80
2022-10-01T19:04:45.405Z,18.00
2022-10-01T19:10:09.133Z,32.30
2022-10-01T19:15:40.568Z,74.40
2022-10-01T19:21:08.041Z,39.20
2022-10-01T19:26:29.381Z,39.60
2022-10-01T19:31:55.241Z,25.60
2022-10-01T19:37:11.529Z,28.70
2022-10-01T19:42:22.418Z,22.20
2022-10-01T19:47:41.086Z,26.10
2022-10-01T19:52:48.706Z,40.40
2022-10-01T19:57:53.032Z,22.90
2022-10-01T20:03:01.051Z,29.80
2022-10-01T20:08:14.719Z,26.10
2022-10-01T20:13:37.264Z,19.70
2022-10-01T20:18:52.563Z,27.90
2022-10-01T20:24:14.818Z,27.50
2022-10-01T20:29:58.475Z,26.20
2022-10-01T20:35:26.793Z,25.30
2022-10-01T20:40:52.852Z,19.40
2022-10-01T20:45:57.727Z,19.80
2022-10-01T20:51:07.105Z,20.10
2022-10-01T20:56:26.732Z,20.20
2022-10-01T21:01:35.115Z,22.60
2022-10-01T21:07:01.471Z,25.10
2022-10-01T21:12:16.593Z,21.40
2022-10-01T21:17:50.014Z,16.60
2022-10-01T21:23:14.547Z,15.50
2022-10-01T21:28:21.355Z,10.90
2022-10-01T21:33:31.594Z,13.40
2022-10-01T21:38:49.771Z,10.20
2022-10-01T21:44:11.133Z,10.80
2022-10-01T21:49:34.044Z,10.50
2022-10-01T21:55:14.855Z,8.20
2022-10-01T22:00:25.050Z,6.60
2022-10-01T22:06:13.016Z,6.40
2022-10-01T22:11:26.301Z,6.40
2022-10-01T22:16:38.728Z,6.80
2022-10-01T22:21:53.486Z,6.90
2022-10-01T22:27:08.984Z,6.00
2022-10-01T22:32:15.482Z,4.80
2022-10-01T22:37:24.713Z,5.30
2022-10-01T22:42:42.663Z,4.80
2022-10-01T22:48:39.790Z,5.30
2022-10-01T22:54:07.752Z,5.00
2022-10-01T22:59:35.893Z,5.00
2022-10-01T23:05:16.816Z,3.90
2022-10-01T23:10:34.770Z,5.30
2022-10-01T23:15:57.428Z,4.90
2022-10-01T23:21:00.541Z,5.60
2022-10-01T23:26:18.904Z,6.10
2022-10-01T23:32:00.445Z,4.10
2022-10-01T23:37:17.492Z,6.30
2022-10-01T23:42:28.124Z,7.30
2022-10-01T23:47:45.976Z,7.30
2022-10-01T23:53:03.537Z,7.60
2022-10-01T23:58:11.540Z,8.40
